createdAt,value
2019-06-20T00:00:49.118Z,28.30
2019-06-20T00:03:18.510Z,28.30
2019-06-20T00:05:47.901Z,28.30
2019-06-20T00:08:17.292Z,28.30
2019-06-20T00:10:47.279Z,28.20
2019-06-20T00:13:16.646Z,28.20
2019-06-20T00:15:46.024Z,28.20
2019-06-20T00:18:15.425Z,28.20
2019-06-20T00:20:44.816Z,28.20
2019-06-20T00:23:14.193Z,28.20
2019-06-20T00:25:43.600Z,28.20
2019-06-20T00:28:12.999Z,28.20
2019-06-20T00:30:43.172Z,28.20
2019-06-20T00:33:12.851Z,28.20
2019-06-20T00:35:42.216Z,28.10
2019-06-20T00:38:11.896Z,28.10
2019-06-20T00:40:41.438Z,28.00
2019-06-20T00:43:17.426Z,27.90
2019-06-20T00:45:41.972Z,27.80
2019-06-20T00:48:11.442Z,27.70
2019-06-20T00:50:40.824Z,27.60
2019-06-20T00:53:10.280Z,27.50
2019-06-20T00:55:40.235Z,27.40
2019-06-20T00:58:09.562Z,27.30
2019-06-20T01:00:39.025Z,27.20
2019-06-20T01:03:08.444Z,27.20
2019-06-20T01:05:37.820Z,27.10
2019-06-20T01:08:07.376Z,27.00
2019-06-20T01:10:36.768Z,27.00
2019-06-20T01:13:06.156Z,27.00
2019-06-20T01:15:38.192Z,26.90
2019-06-20T01:18:07.578Z,26.90
2019-06-20T01:20:37.027Z,26.80
2019-06-20T01:23:06.472Z,26.80
2019-06-20T01:25:38.694Z,26.70
2019-06-20T01:28:08.429Z,26.70
2019-06-20T01:30:38.228Z,26.70
2019-06-20T01:33:08.243Z,26.70
2019-06-20T01:35:37.621Z,26.80
2019-06-20T01:38:07.095Z,26.80
2019-06-20T01:40:36.501Z,26.80
2019-06-20T01:43:06.369Z,26.70
2019-06-20T01:45:35.783Z,26.70
2019-06-20T01:48:05.368Z,26.60
2019-06-20T01:50:34.818Z,26.60
2019-06-20T01:53:04.186Z,26.50
2019-06-20T01:55:35.563Z,26.40
2019-06-20T01:58:05.000Z,26.40
2019-06-20T02:00:44.838Z,26.30
2019-06-20T02:03:16.028Z,26.20
2019-06-20T02:05:45.947Z,26.10
2019-06-20T02:08:16.071Z,26.00
2019-06-20T02:10:45.513Z,26.00
2019-06-20T02:13:15.271Z,25.90
2019-06-20T02:15:44.608Z,25.70
2019-06-20T02:18:14.147Z,25.70
2019-06-20T02:20:52.071Z,25.60
2019-06-20T02:23:23.415Z,25.50
2019-06-20T02:25:52.810Z,25.40
2019-06-20T02:28:23.302Z,25.30
2019-06-20T02:30:52.844Z,25.30
2019-06-20T02:33:22.514Z,25.20
2019-06-20T02:35:52.522Z,25.20
2019-06-20T02:38:22.012Z,25.10
2019-06-20T02:40:51.347Z,25.00
2019-06-20T02:43:20.814Z,25.00
2019-06-20T02:45:50.274Z,24.90
2019-06-20T02:48:19.807Z,24.90
2019-06-20T02:50:49.198Z,24.90
2019-06-20T02:53:18.572Z,24.80
2019-06-20T02:55:48.052Z,24.70
2019-06-20T02:58:17.834Z,24.70
2019-06-20T03:00:56.868Z,24.70
2019-06-20T03:03:27.842Z,24.60
2019-06-20T03:05:57.938Z,24.60
2019-06-20T03:08:27.745Z,24.50
2019-06-20T03:10:58.408Z,24.50
2019-06-20T03:13:27.957Z,24.40
2019-06-20T03:15:57.587Z,24.40
2019-06-20T03:18:27.199Z,24.40
2019-06-20T03:20:56.580Z,24.40
2019-06-20T03:23:25.945Z,24.40
2019-06-20T03:25:55.407Z,24.40
2019-06-20T03:28:24.774Z,24.40
2019-06-20T03:30:54.245Z,24.40
2019-06-20T03:33:23.677Z,24.40
2019-06-20T03:35:53.007Z,24.40
2019-06-20T03:38:22.621Z,24.40
2019-06-20T03:40:51.987Z,24.50
2019-06-20T03:43:21.390Z,24.50
2019-06-20T03:45:50.759Z,24.50
2019-06-20T03:48:20.168Z,24.50
2019-06-20T03:50:49.618Z,24.50
2019-06-20T03:53:18.973Z,24.50
2019-06-20T03:55:49.068Z,24.50
2019-06-20T03:58:18.426Z,24.50
2019-06-20T04:00:47.805Z,24.50
2019-06-20T04:03:17.955Z,24.50
2019-06-20T04:05:47.346Z,24.50
2019-06-20T04:08:16.748Z,24.50
2019-06-20T04:10:46.194Z,24.50
2019-06-20T04:13:15.591Z,24.50
2019-06-20T04:15:45.010Z,24.50
2019-06-20T04:18:14.419Z,24.50
2019-06-20T04:20:43.854Z,24.60
2019-06-20T04:23:13.231Z,24.60
2019-06-20T04:25:43.212Z,24.60
2019-06-20T04:28:12.579Z,24.70
2019-06-20T04:30:42.119Z,24.70
2019-06-20T04:33:11.899Z,24.80
2019-06-20T04:35:41.246Z,24.80
2019-06-20T04:38:10.622Z,24.90
2019-06-20T04:40:40.461Z,24.90
2019-06-20T04:43:09.867Z,25.00
2019-06-20T04:45:40.878Z,25.00
2019-06-20T04:48:10.567Z,25.10
2019-06-20T04:50:40.037Z,25.20
2019-06-20T04:53:09.398Z,25.20
2019-06-20T04:55:38.862Z,25.30
2019-06-20T04:58:08.303Z,25.30
2019-06-20T05:00:37.689Z,25.40
2019-06-20T05:03:07.138Z,25.50
2019-06-20T05:05:36.513Z,25.60
2019-06-20T05:08:05.886Z,25.60
2019-06-20T05:10:35.838Z,25.80
2019-06-20T05:13:05.210Z,25.90
2019-06-20T05:15:48.134Z,26.10
2019-06-20T05:18:05.845Z,26.30
2019-06-20T05:20:35.719Z,26.40
2019-06-20T05:23:05.114Z,26.60
2019-06-20T05:25:34.846Z,26.90
2019-06-20T05:28:04.224Z,27.20
2019-06-20T05:30:33.662Z,27.40
2019-06-20T05:33:03.567Z,27.60
2019-06-20T05:35:32.919Z,27.70
2019-06-20T05:38:02.477Z,27.80
2019-06-20T05:40:31.944Z,27.90
2019-06-20T05:43:01.765Z,28.10
2019-06-20T05:45:31.133Z,28.20
2019-06-20T05:48:00.536Z,28.40
2019-06-20T05:50:29.918Z,28.40
2019-06-20T05:52:59.408Z,28.50
2019-06-20T05:55:29.089Z,28.60
2019-06-20T05:57:58.464Z,28.70
2019-06-20T06:00:28.104Z,28.70
2019-06-20T06:02:58.257Z,28.70
2019-06-20T06:05:27.731Z,28.70
2019-06-20T06:07:57.155Z,28.70
2019-06-20T06:10:27.939Z,28.70
2019-06-20T06:12:57.298Z,28.70
2019-06-20T06:15:26.936Z,28.70
2019-06-20T06:17:56.364Z,28.70
2019-06-20T06:20:25.749Z,28.80
2019-06-20T06:22:55.145Z,28.80
2019-06-20T06:25:24.614Z,28.80
2019-06-20T06:27:53.983Z,28.80
2019-06-20T06:30:23.764Z,28.70
2019-06-20T06:32:53.159Z,28.70
2019-06-20T06:35:22.707Z,28.60
2019-06-20T06:37:52.120Z,28.50
2019-06-20T06:40:22.835Z,28.40
2019-06-20T06:42:52.242Z,28.20
2019-06-20T06:45:22.608Z,28.00
2019-06-20T06:47:52.041Z,27.70
2019-06-20T06:50:22.744Z,27.40
2019-06-20T06:52:52.114Z,27.10
2019-06-20T06:55:21.586Z,26.80
2019-06-20T06:57:51.030Z,26.60
2019-06-20T07:00:22.483Z,26.50
2019-06-20T07:02:51.944Z,26.30
2019-06-20T07:05:21.433Z,26.20
2019-06-20T07:07:51.063Z,26.10
2019-06-20T07:10:23.268Z,26.00
2019-06-20T07:12:52.639Z,26.00
2019-06-20T07:15:22.158Z,25.90
2019-06-20T07:17:51.555Z,25.90
2019-06-20T07:20:21.331Z,25.90
2019-06-20T07:22:50.688Z,26.00
2019-06-20T07:25:20.235Z,26.00
2019-06-20T07:27:49.603Z,26.10
2019-06-20T07:30:19.481Z,26.10
2019-06-20T07:32:48.874Z,26.20
2019-06-20T07:35:18.571Z,26.20
2019-06-20T07:37:47.949Z,26.20
2019-06-20T07:40:17.768Z,26.30
2019-06-20T07:42:47.162Z,26.30
2019-06-20T07:45:17.448Z,26.30
2019-06-20T07:47:47.606Z,26.30
2019-06-20T07:50:17.416Z,26.30
2019-06-20T07:53:00.802Z,26.40
2019-06-20T07:55:18.049Z,26.40
2019-06-20T07:57:47.433Z,26.40
2019-06-20T08:00:17.538Z,26.40
2019-06-20T08:02:46.933Z,26.40
2019-06-20T08:05:17.221Z,26.30
2019-06-20T08:07:46.594Z,26.20
2019-06-20T08:10:17.451Z,26.20
2019-06-20T08:12:46.844Z,26.10
2019-06-20T08:15:17.144Z,26.00
2019-06-20T08:17:46.522Z,26.00
2019-06-20T08:20:16.974Z,25.90
2019-06-20T08:22:46.317Z,25.90
2019-06-20T08:25:18.875Z,25.90
2019-06-20T08:27:52.326Z,25.90
2019-06-20T08:30:34.144Z,25.90
2019-06-20T08:33:09.671Z,25.90
2019-06-20T08:35:35.202Z,25.90
2019-06-20T08:38:05.757Z,25.90
2019-06-20T08:40:38.246Z,25.90
2019-06-20T08:43:08.533Z,26.10
2019-06-20T08:45:40.056Z,26.20
2019-06-20T08:48:09.804Z,26.40
2019-06-20T08:50:41.059Z,26.50
2019-06-20T08:53:10.456Z,26.60
2019-06-20T08:55:39.914Z,26.80
2019-06-20T08:58:09.364Z,26.90
2019-06-20T09:00:42.729Z,27.10
2019-06-20T09:03:12.085Z,27.20
2019-06-20T09:05:41.488Z,27.30
2019-06-20T09:08:11.965Z,27.40
2019-06-20T09:10:43.428Z,27.50
2019-06-20T09:13:13.462Z,27.70
2019-06-20T09:15:44.725Z,27.80
2019-06-20T09:18:14.093Z,27.90
2019-06-20T09:20:43.489Z,28.00
2019-06-20T09:23:12.961Z,28.00
2019-06-20T09:25:42.343Z,28.10
2019-06-20T09:28:11.728Z,28.10
2019-06-20T09:30:41.090Z,28.10
2019-06-20T09:33:10.536Z,28.10
2019-06-20T09:35:39.913Z,28.00
2019-06-20T09:38:09.773Z,28.00
2019-06-20T09:40:39.243Z,28.00
2019-06-20T09:43:08.704Z,28.00
2019-06-20T09:45:38.559Z,28.00
2019-06-20T09:48:07.949Z,28.00
2019-06-20T09:50:37.412Z,28.00
2019-06-20T09:53:07.149Z,28.00
2019-06-20T09:55:36.861Z,28.10
2019-06-20T09:58:06.398Z,28.10
2019-06-20T10:00:37.149Z,28.20
2019-06-20T10:03:07.053Z,28.30
2019-06-20T10:05:36.956Z,28.40
2019-06-20T10:08:06.435Z,28.40
2019-06-20T10:10:37.736Z,28.60
2019-06-20T10:13:07.111Z,28.70
2019-06-20T10:15:39.183Z,28.80
2019-06-20T10:18:09.121Z,28.90
2019-06-20T10:20:39.392Z,29.00
2019-06-20T10:23:09.071Z,29.10
2019-06-20T10:25:38.901Z,29.20
2019-06-20T10:28:08.470Z,29.30
2019-06-20T10:30:38.146Z,29.40
2019-06-20T10:33:07.502Z,29.50
2019-06-20T10:35:36.880Z,29.60
2019-06-20T10:38:06.352Z,29.60
2019-06-20T10:40:35.713Z,29.60
2019-06-20T10:43:05.365Z,29.50
2019-06-20T10:45:36.372Z,29.50
2019-06-20T10:48:06.481Z,29.40
2019-06-20T10:50:37.371Z,29.30
2019-06-20T10:53:07.423Z,29.30
2019-06-20T10:55:37.035Z,29.30
2019-06-20T10:58:06.566Z,29.30
2019-06-20T11:00:35.962Z,29.30
2019-06-20T11:03:05.705Z,29.30
2019-06-20T11:05:35.150Z,29.20
2019-06-20T11:08:04.623Z,29.20
2019-06-20T11:10:35.145Z,29.20
2019-06-20T11:13:04.678Z,29.30
2019-06-20T11:15:35.111Z,29.40
2019-06-20T11:18:04.553Z,29.50
2019-06-20T11:20:34.002Z,29.50
2019-06-20T11:23:03.421Z,29.50
2019-06-20T11:25:32.838Z,29.50
2019-06-20T11:28:02.192Z,29.40
2019-06-20T11:30:46.728Z,29.40
2019-06-20T11:33:05.533Z,29.50
2019-06-20T11:35:36.581Z,29.50
2019-06-20T11:38:06.483Z,29.60
2019-06-20T11:40:36.860Z,29.70
2019-06-20T11:43:07.053Z,29.80
2019-06-20T11:45:37.335Z,29.80
2019-06-20T11:48:07.659Z,29.90
2019-06-20T11:50:37.926Z,30.00
2019-06-20T11:53:07.417Z,30.10
2019-06-20T11:55:36.795Z,30.10
2019-06-20T11:58:06.511Z,30.20
2019-06-20T12:00:36.198Z,30.30
2019-06-20T12:03:06.157Z,30.40
2019-06-20T12:05:35.620Z,30.40
2019-06-20T12:08:05.173Z,30.50
2019-06-20T12:10:34.547Z,30.60
2019-06-20T12:13:03.988Z,30.60
2019-06-20T12:15:33.497Z,30.60
2019-06-20T12:18:02.874Z,30.70
2019-06-20T12:20:32.256Z,30.80
2019-06-20T12:23:01.953Z,30.80
2019-06-20T12:25:31.280Z,30.80
2019-06-20T12:28:00.670Z,30.90
2019-06-20T12:30:30.283Z,31.00
2019-06-20T12:32:59.676Z,31.10
2019-06-20T12:35:29.074Z,31.20
2019-06-20T12:37:58.747Z,31.20
2019-06-20T12:40:28.122Z,31.10
2019-06-20T12:42:57.510Z,31.20
2019-06-20T12:45:26.904Z,31.20
2019-06-20T12:47:56.281Z,31.20
2019-06-20T12:50:25.671Z,31.20
2019-06-20T12:52:55.039Z,31.30
2019-06-20T12:55:24.486Z,31.30
2019-06-20T12:57:53.873Z,31.30
2019-06-20T13:00:26.770Z,31.40
2019-06-20T13:02:56.117Z,31.40
2019-06-20T13:05:26.598Z,31.40
2019-06-20T13:07:55.916Z,31.40
2019-06-20T13:10:25.300Z,31.40
2019-06-20T13:12:54.663Z,31.30
2019-06-20T13:15:24.137Z,31.30
2019-06-20T13:17:53.491Z,31.20
2019-06-20T13:20:23.304Z,31.10
2019-06-20T13:22:52.707Z,31.10
2019-06-20T13:25:22.084Z,31.00
2019-06-20T13:27:51.458Z,31.00
2019-06-20T13:30:21.482Z,31.00
2019-06-20T13:32:50.855Z,31.00
2019-06-20T13:35:21.540Z,30.90
2019-06-20T13:37:51.033Z,30.90
2019-06-20T13:40:22.012Z,30.80
2019-06-20T13:42:54.489Z,30.70
2019-06-20T13:45:27.197Z,30.70
2019-06-20T13:47:56.742Z,30.60
2019-06-20T13:50:26.742Z,30.40
2019-06-20T13:52:56.135Z,30.40
2019-06-20T13:55:25.515Z,30.40
2019-06-20T13:57:54.907Z,30.30
2019-06-20T14:00:25.889Z,30.30
2019-06-20T14:02:55.492Z,30.20
2019-06-20T14:05:24.914Z,30.10
2019-06-20T14:07:56.030Z,30.10
2019-06-20T14:10:25.472Z,30.00
2019-06-20T14:12:54.843Z,29.90
2019-06-20T14:15:24.380Z,29.80
2019-06-20T14:17:53.951Z,29.60
2019-06-20T14:20:24.024Z,29.50
2019-06-20T14:22:54.560Z,29.40
2019-06-20T14:25:24.464Z,29.30
2019-06-20T14:27:54.000Z,29.30
2019-06-20T14:30:23.815Z,29.20
2019-06-20T14:32:54.042Z,29.20
2019-06-20T14:35:23.883Z,29.20
2019-06-20T14:37:53.511Z,29.10
2019-06-20T14:40:24.491Z,29.10
2019-06-20T14:42:54.342Z,29.10
2019-06-20T14:45:23.928Z,29.10
2019-06-20T14:47:53.274Z,29.10
2019-06-20T14:50:24.014Z,29.10
2019-06-20T14:52:54.175Z,29.00
2019-06-20T14:55:23.847Z,29.00
2019-06-20T14:57:54.635Z,29.00
2019-06-20T15:00:25.801Z,28.90
2019-06-20T15:02:58.445Z,28.90
2019-06-20T15:05:27.368Z,28.80
2019-06-20T15:07:57.384Z,28.80
2019-06-20T15:10:27.030Z,28.70
2019-06-20T15:12:56.403Z,28.70
2019-06-20T15:15:26.162Z,28.70
2019-06-20T15:17:57.613Z,28.70
2019-06-20T15:20:26.626Z,28.80
2019-06-20T15:22:56.591Z,28.90
2019-06-20T15:25:26.476Z,29.00
2019-06-20T15:27:57.355Z,29.10
2019-06-20T15:30:27.343Z,29.20
2019-06-20T15:33:07.647Z,29.30
2019-06-20T15:35:27.847Z,29.40
2019-06-20T15:37:57.795Z,29.50
2019-06-20T15:40:27.385Z,29.50
2019-06-20T15:42:58.958Z,29.50
2019-06-20T15:45:28.457Z,29.60
2019-06-20T15:47:57.837Z,29.60
2019-06-20T15:50:27.194Z,29.60
2019-06-20T15:52:56.587Z,29.70
2019-06-20T15:55:26.008Z,29.70
2019-06-20T15:57:55.350Z,29.80
2019-06-20T16:00:25.040Z,29.80
2019-06-20T16:03:08.803Z,29.90
2019-06-20T16:05:25.522Z,29.90
2019-06-20T16:07:56.843Z,30.00
2019-06-20T16:10:26.211Z,30.00
2019-06-20T16:12:55.589Z,30.10
2019-06-20T16:15:25.049Z,30.20
2019-06-20T16:17:54.427Z,30.20
2019-06-20T16:20:24.391Z,30.20
2019-06-20T16:22:53.749Z,30.30
2019-06-20T16:25:23.119Z,30.30
2019-06-20T16:27:52.864Z,30.30
2019-06-20T16:30:23.297Z,30.30
2019-06-20T16:32:52.659Z,30.20
2019-06-20T16:35:22.144Z,30.20
2019-06-20T16:37:51.630Z,30.20
2019-06-20T16:40:34.336Z,30.20
2019-06-20T16:43:03.723Z,30.20
2019-06-20T16:45:33.129Z,30.20
2019-06-20T16:48:02.495Z,30.30
2019-06-20T16:50:51.646Z,30.40
2019-06-20T16:53:21.019Z,30.40
2019-06-20T16:55:50.407Z,30.40
2019-06-20T16:58:19.823Z,30.50
2019-06-20T17:00:49.208Z,30.50
2019-06-20T17:03:18.571Z,30.50
2019-06-20T17:05:47.967Z,30.50
2019-06-20T17:08:17.345Z,30.60
2019-06-20T17:10:47.966Z,30.70
2019-06-20T17:13:17.863Z,30.70
2019-06-20T17:15:47.577Z,30.80
2019-06-20T17:18:16.967Z,30.80
2019-06-20T17:20:46.417Z,30.80
2019-06-20T17:23:15.799Z,30.80
2019-06-20T17:25:45.444Z,30.70
2019-06-20T17:28:14.811Z,30.60
2019-06-20T17:30:44.192Z,30.50
2019-06-20T17:33:13.629Z,30.50
2019-06-20T17:35:43.660Z,30.50
2019-06-20T17:38:13.039Z,30.40
2019-06-20T17:40:42.416Z,30.50
2019-06-20T17:43:11.807Z,30.40
2019-06-20T17:45:41.174Z,30.40
2019-06-20T17:48:10.548Z,30.40
2019-06-20T17:50:39.937Z,30.50
2019-06-20T17:53:09.335Z,30.40
2019-06-20T17:55:38.695Z,30.60
2019-06-20T17:58:08.383Z,30.60
2019-06-20T18:00:38.292Z,30.50
2019-06-20T18:03:07.670Z,30.50
2019-06-20T18:05:37.150Z,30.40
2019-06-20T18:08:15.169Z,30.30
2019-06-20T18:10:37.624Z,30.30
2019-06-20T18:13:08.470Z,30.20
2019-06-20T18:15:37.848Z,30.10
2019-06-20T18:18:07.303Z,30.00
2019-06-20T18:20:37.173Z,30.00
2019-06-20T18:23:06.544Z,29.90
2019-06-20T18:25:35.906Z,29.80
2019-06-20T18:28:05.627Z,29.80
2019-06-20T18:30:45.893Z,29.70
2019-06-20T18:33:15.576Z,29.70
2019-06-20T18:35:44.953Z,29.60
2019-06-20T18:38:14.318Z,29.60
2019-06-20T18:40:44.013Z,29.50
2019-06-20T18:43:13.381Z,29.50
2019-06-20T18:45:42.999Z,29.40
2019-06-20T18:48:12.403Z,29.40
2019-06-20T18:50:41.787Z,29.40
2019-06-20T18:53:11.161Z,29.30
2019-06-20T18:55:40.616Z,29.20
2019-06-20T18:58:09.984Z,29.20
2019-06-20T19:00:39.626Z,29.10
2019-06-20T19:03:09.446Z,29.20
2019-06-20T19:05:38.814Z,29.00
2019-06-20T19:08:08.213Z,29.00
2019-06-20T19:10:37.592Z,29.00
2019-06-20T19:13:06.972Z,28.90
2019-06-20T19:15:38.501Z,28.90
2019-06-20T19:18:07.887Z,28.90
2019-06-20T19:20:37.246Z,28.80
2019-06-20T19:23:06.738Z,28.80
2019-06-20T19:25:36.660Z,28.70
2019-06-20T19:28:06.101Z,28.70
2019-06-20T19:30:48.137Z,28.70
2019-06-20T19:33:17.617Z,28.60
2019-06-20T19:35:47.314Z,28.60
2019-06-20T19:38:16.696Z,28.60
2019-06-20T19:40:50.310Z,28.50
2019-06-20T19:43:18.952Z,28.50
2019-06-20T19:45:48.604Z,28.50
2019-06-20T19:48:17.982Z,28.50
2019-06-20T19:50:47.410Z,28.40
2019-06-20T19:53:16.980Z,28.40
2019-06-20T19:55:46.400Z,28.40
2019-06-20T19:58:15.840Z,28.30
2019-06-20T20:00:45.707Z,28.30
2019-06-20T20:03:15.210Z,28.20
2019-06-20T20:05:45.542Z,28.10
2019-06-20T20:08:15.319Z,28.00
2019-06-20T20:10:47.704Z,27.90
2019-06-20T20:13:18.078Z,27.90
2019-06-20T20:15:48.564Z,27.80
2019-06-20T20:18:18.959Z,27.80
2019-06-20T20:20:48.968Z,27.70
2019-06-20T20:23:18.485Z,27.70
2019-06-20T20:25:48.256Z,27.70
2019-06-20T20:28:18.262Z,27.60
2019-06-20T20:30:48.107Z,27.60
2019-06-20T20:33:17.473Z,27.60
2019-06-20T20:35:46.866Z,27.60
2019-06-20T20:38:16.239Z,27.60
2019-06-20T20:40:45.621Z,27.50
2019-06-20T20:43:14.995Z,27.50
2019-06-20T20:45:44.421Z,27.60
2019-06-20T20:48:13.790Z,27.50
2019-06-20T20:50:43.641Z,27.50
2019-06-20T20:53:13.036Z,27.50
2019-06-20T20:55:42.791Z,27.60
2019-06-20T20:58:12.159Z,27.50
2019-06-20T21:00:58.193Z,27.50
2019-06-20T21:03:27.561Z,27.50
2019-06-20T21:05:56.932Z,27.50
2019-06-20T21:08:26.655Z,27.50
2019-06-20T21:10:56.024Z,27.50
2019-06-20T21:13:25.423Z,27.50
2019-06-20T21:15:54.779Z,27.50
2019-06-20T21:18:24.160Z,27.50
2019-06-20T21:20:54.612Z,27.50
2019-06-20T21:23:24.353Z,27.40
2019-06-20T21:25:53.724Z,27.40
2019-06-20T21:28:23.101Z,27.40
2019-06-20T21:30:52.479Z,27.40
2019-06-20T21:33:21.848Z,27.40
2019-06-20T21:36:06.976Z,27.30
2019-06-20T21:38:22.348Z,27.30
2019-06-20T21:40:51.723Z,27.30
2019-06-20T21:43:21.089Z,27.20
2019-06-20T21:45:50.822Z,27.20
2019-06-20T21:48:20.202Z,27.20
2019-06-20T21:50:49.574Z,27.20
2019-06-20T21:53:18.998Z,27.10
2019-06-20T21:55:48.368Z,27.10
2019-06-20T21:58:17.714Z,27.10
2019-06-20T22:00:52.776Z,27.10
2019-06-20T22:03:22.148Z,27.10
2019-06-20T22:05:51.509Z,27.00
2019-06-20T22:08:20.892Z,27.00
2019-06-20T22:10:50.269Z,26.90
2019-06-20T22:13:19.652Z,26.90
2019-06-20T22:15:49.035Z,26.80
2019-06-20T22:18:18.409Z,26.70
2019-06-20T22:20:47.778Z,26.60
2019-06-20T22:23:18.666Z,26.50
2019-06-20T22:25:48.047Z,26.40
2019-06-20T22:28:17.421Z,26.30
2019-06-20T22:30:51.428Z,26.10
2019-06-20T22:33:21.168Z,26.00
2019-06-20T22:35:51.083Z,25.80
2019-06-20T22:38:20.650Z,25.70
2019-06-20T22:40:50.026Z,25.60
2019-06-20T22:43:19.409Z,25.50
2019-06-20T22:45:48.872Z,25.30
2019-06-20T22:48:18.486Z,25.20
2019-06-20T22:50:47.862Z,25.10
2019-06-20T22:53:17.238Z,25.00
2019-06-20T22:55:46.618Z,25.00
2019-06-20T22:58:15.994Z,24.90
2019-06-20T23:00:45.722Z,24.80
2019-06-20T23:03:15.092Z,24.80
2019-06-20T23:05:44.477Z,24.70
2019-06-20T23:08:13.857Z,24.70
2019-06-20T23:10:43.234Z,24.60
2019-06-20T23:13:12.709Z,24.60
2019-06-20T23:15:42.571Z,24.50
2019-06-20T23:18:11.936Z,24.50
2019-06-20T23:20:41.569Z,24.50
2019-06-20T23:23:11.235Z,24.40
2019-06-20T23:25:43.145Z,24.40
2019-06-20T23:28:12.527Z,24.40
2019-06-20T23:30:41.915Z,24.40
2019-06-20T23:33:11.294Z,24.40
2019-06-20T23:35:40.677Z,24.30
2019-06-20T23:38:10.403Z,24.30
2019-06-20T23:40:39.796Z,24.30
2019-06-20T23:43:09.169Z,24.30
2019-06-20T23:45:38.581Z,24.30
2019-06-20T23:48:07.955Z,24.30
2019-06-20T23:50:37.327Z,24.30
2019-06-20T23:53:08.544Z,24.30
2019-06-20T23:55:37.927Z,24.30
2019-06-20T23:58:07.287Z,24.30
